Aviation Digital Data Service (ADDS)

Output produced by METARs form (0339 UTC 26 June 2019)
found at http://www.aviationweather.gov/metar/data/
 
METAR text: MMMD 260244Z 11015KT 7SM SKC 32/21 A2995 RMK SLP143 52021 914
Conditions at: MMMD (MERIDA INTL ARPT, MX) observed 0244 UTC 26 June 2019
Temperature: 32.0°C (90°F)
Dewpoint: 21.0°C (70°F) [RH = 52%]
Pressure (altimeter): 29.95 inches Hg (1014.3 mb)
[Sea-level pressure: 1014.3 mb]
Winds: from the ESE (110 degrees) at 17 MPH (15 knots; 7.7 m/s)
Visibility: 7 miles (11 km)
Ceiling: at least 12,000 feet AGL
Clouds: clear skies
Weather: no significant weather observed at this time

METAR text: MMMD 260142Z 07010KT 7SM SCT070 32/22 A2992 RMK 8/070
Conditions at: MMMD (MERIDA INTL ARPT, MX) observed 0142 UTC 26 June 2019
Temperature: 32.0°C (90°F)
Dewpoint: 22.0°C (72°F) [RH = 56%]
Pressure (altimeter): 29.92 inches Hg (1013.3 mb)
Winds: from the ENE (70 degrees) at 12 MPH (10 knots; 5.1 m/s)
Visibility: 7 miles (11 km)
Ceiling: at least 12,000 feet AGL
Clouds: scattered clouds at 7000 feet AGL
Weather: no significant weather observed at this time

METAR text: MMMD 260043Z 06010G20KT 7SM SCT025 BKN300 33/22 A2989 RMK 8/408
Conditions at: MMMD (MERIDA INTL ARPT, MX) observed 0043 UTC 26 June 2019
Temperature: 33.0°C (91°F)
Dewpoint: 22.0°C (72°F) [RH = 53%]
Pressure (altimeter): 29.89 inches Hg (1012.3 mb)
Winds: from the ENE (60 degrees) at 12 MPH (10 knots; 5.1 m/s)
gusting to 23 MPH (20 knots; 10.3 m/s)
Visibility: 7 miles (11 km)
Ceiling: 30000 feet AGL
Clouds: scattered clouds at 2500 feet AGL
broken clouds at 30000 feet AGL
Weather: no significant weather observed at this time

METAR text: MMMD 252342Z 03015KT 7SM SCT025 OVC300 33/23 A2987 RMK SLP121 52003 913 8/407 HZY
Conditions at: MMMD (MERIDA INTL ARPT, MX) observed 2342 UTC 25 June 2019
Temperature: 33.0°C (91°F)
Dewpoint: 23.0°C (73°F) [RH = 56%]
Pressure (altimeter): 29.87 inches Hg (1011.6 mb)
[Sea-level pressure: 1012.1 mb]
Winds: from the NNE (30 degrees) at 17 MPH (15 knots; 7.7 m/s)
Visibility: 7 miles (11 km)
Ceiling: 30000 feet AGL
Clouds: scattered clouds at 2500 feet AGL
overcast cloud deck at 30000 feet AGL
Weather: no significant weather observed at this time

METAR text: MMMD 252247Z 02007KT 7SM SCT025TCU OVC300 34/24 A2986 RMK 8/207 HZY
Conditions at: MMMD (MERIDA INTL ARPT, MX) observed 2247 UTC 25 June 2019
Temperature: 34.0°C (93°F)
Dewpoint: 24.0°C (75°F) [RH = 56%]
Pressure (altimeter): 29.86 inches Hg (1011.3 mb)
Winds: from the NNE (20 degrees) at 8 MPH (7 knots; 3.6 m/s)
Visibility: 7 miles (11 km)
Ceiling: 30000 feet AGL
Clouds: scattered clouds at 2500 feet AGL
overcast cloud deck at 30000 feet AGL
Weather: no significant weather observed at this time

METAR text: MMMD 252149Z 03011KT 7SM SCT025TCU OVC300 36/25 A2985 RMK 8/207 HZY
Conditions at: MMMD (MERIDA INTL ARPT, MX) observed 2149 UTC 25 June 2019
Temperature: 36.0°C (97°F)
Dewpoint: 25.0°C (77°F) [RH = 53%]
Pressure (altimeter): 29.85 inches Hg (1010.9 mb)
Winds: from the NNE (30 degrees) at 13 MPH (11 knots; 5.7 m/s)
Visibility: 7 miles (11 km)
Ceiling: 30000 feet AGL
Clouds: scattered clouds at 2500 feet AGL
overcast cloud deck at 30000 feet AGL
Weather: no significant weather observed at this time

METAR text: MMMD 252134Z 02010KT 7SM SCT025 OVC300 35/23 A2985 RMK 8/107 HZY
Conditions at: MMMD (MERIDA INTL ARPT, MX) observed 2134 UTC 25 June 2019
Temperature: 35.0°C (95°F)
Dewpoint: 23.0°C (73°F) [RH = 50%]
Pressure (altimeter): 29.85 inches Hg (1010.9 mb)
Winds: from the NNE (20 degrees) at 12 MPH (10 knots; 5.1 m/s)
Visibility: 7 miles (11 km)
Ceiling: 30000 feet AGL
Clouds: scattered clouds at 2500 feet AGL
overcast cloud deck at 30000 feet AGL
Weather: no significant weather observed at this time

METAR text: MMMD 252041Z 08010KT 7SM SCT025 OVC300 38/21 A2987 RMK SLP119 56025 953 8/107 HZY
Conditions at: MMMD (MERIDA INTL ARPT, MX) observed 2041 UTC 25 June 2019
Temperature: 38.0°C (100°F)
Dewpoint: 21.0°C (70°F) [RH = 38%]
Pressure (altimeter): 29.87 inches Hg (1011.6 mb)
[Sea-level pressure: 1011.9 mb]
Winds: from the E (80 degrees) at 12 MPH (10 knots; 5.1 m/s)
Visibility: 7 miles (11 km)
Ceiling: 30000 feet AGL
Clouds: scattered clouds at 2500 feet AGL
overcast cloud deck at 30000 feet AGL
Weather: no significant weather observed at this time

METAR text: MMMD 251943Z 11010KT 7SM SCT025 OVC300 36/22 A2989 RMK 8/107
Conditions at: MMMD (MERIDA INTL ARPT, MX) observed 1943 UTC 25 June 2019
Temperature: 36.0°C (97°F)
Dewpoint: 22.0°C (72°F) [RH = 45%]
Pressure (altimeter): 29.89 inches Hg (1012.3 mb)
Winds: from the ESE (110 degrees) at 12 MPH (10 knots; 5.1 m/s)
Visibility: 7 miles (11 km)
Ceiling: 30000 feet AGL
Clouds: scattered clouds at 2500 feet AGL
overcast cloud deck at 30000 feet AGL
Weather: no significant weather observed at this time

METAR text: MMMD 251848Z 10009KT 7SM SCT025 OVC300 36/23 A2991 RMK 8/107
Conditions at: MMMD (MERIDA INTL ARPT, MX) observed 1848 UTC 25 June 2019
Temperature: 36.0°C (97°F)
Dewpoint: 23.0°C (73°F) [RH = 47%]
Pressure (altimeter): 29.91 inches Hg (1013.0 mb)
Winds: from the E (100 degrees) at 10 MPH (9 knots; 4.6 m/s)
Visibility: 7 miles (11 km)
Ceiling: 30000 feet AGL
Clouds: scattered clouds at 2500 feet AGL
overcast cloud deck at 30000 feet AGL
Weather: no significant weather observed at this time

METAR text: MMMD 251747Z 08012KT 7SM SCT025 OVC300 35/23 A2994 RMK SLP144 57012 906 8/107 HZY
Conditions at: MMMD (MERIDA INTL ARPT, MX) observed 1747 UTC 25 June 2019
Temperature: 35.0°C (95°F)
Dewpoint: 23.0°C (73°F) [RH = 50%]
Pressure (altimeter): 29.94 inches Hg (1014.0 mb)
[Sea-level pressure: 1014.4 mb]
Winds: from the E (80 degrees) at 14 MPH (12 knots; 6.2 m/s)
Visibility: 7 miles (11 km)
Ceiling: 30000 feet AGL
Clouds: scattered clouds at 2500 feet AGL
overcast cloud deck at 30000 feet AGL
Weather: no significant weather observed at this time

METAR text: MMMD 251648Z 11018KT 7SM SCT020 OVC300 34/23 A2996 RMK 8/107 HZY HALO
Conditions at: MMMD (MERIDA INTL ARPT, MX) observed 1648 UTC 25 June 2019
Temperature: 34.0°C (93°F)
Dewpoint: 23.0°C (73°F) [RH = 53%]
Pressure (altimeter): 29.96 inches Hg (1014.6 mb)
Winds: from the ESE (110 degrees) at 21 MPH (18 knots; 9.3 m/s)
Visibility: 7 miles (11 km)
Ceiling: 30000 feet AGL
Clouds: scattered clouds at 2000 feet AGL
overcast cloud deck at 30000 feet AGL
Weather: no significant weather observed at this time

METAR text: MMMD 251545Z 09010KT 7SM BKN018 BKN300 32/24 A2998 RMK 8/108 HZY
Conditions at: MMMD (MERIDA INTL ARPT, MX) observed 1545 UTC 25 June 2019
Temperature: 32.0°C (90°F)
Dewpoint: 24.0°C (75°F) [RH = 63%]
Pressure (altimeter): 29.98 inches Hg (1015.3 mb)
Winds: from the E (90 degrees) at 12 MPH (10 knots; 5.1 m/s)
Visibility: 7 miles (11 km)
Ceiling: 1800 feet AGL
Clouds: broken clouds at 1800 feet AGL
broken clouds at 30000 feet AGL
Weather: no significant weather observed at this time

METAR text: MMMD 251445Z 10016KT 7SM FEW015 BKN300 31/24 A2997 RMK SLP156 52006 903 8/108 HZY
Conditions at: MMMD (MERIDA INTL ARPT, MX) observed 1445 UTC 25 June 2019
Temperature: 31.0°C (88°F)
Dewpoint: 24.0°C (75°F) [RH = 66%]
Pressure (altimeter): 29.97 inches Hg (1015.0 mb)
[Sea-level pressure: 1015.6 mb]
Winds: from the E (100 degrees) at 18 MPH (16 knots; 8.2 m/s)
Visibility: 7 miles (11 km)
Ceiling: 30000 feet AGL
Clouds: few clouds at 1500 feet AGL
broken clouds at 30000 feet AGL
Weather: no significant weather observed at this time

METAR text: MMMD 251346Z 11013KT 6SM FEW013 BKN300 29/25 A2998 RMK 8/108 HZY
Conditions at: MMMD (MERIDA INTL ARPT, MX) observed 1346 UTC 25 June 2019
Temperature: 29.0°C (84°F)
Dewpoint: 25.0°C (77°F) [RH = 79%]
Pressure (altimeter): 29.98 inches Hg (1015.3 mb)
Winds: from the ESE (110 degrees) at 15 MPH (13 knots; 6.7 m/s)
Visibility: 6 miles (10 km)
Ceiling: 30000 feet AGL
Clouds: few clouds at 1300 feet AGL
broken clouds at 30000 feet AGL
Weather: no significant weather observed at this time

METAR text: MMMD 251246Z 10008KT 6SM BKN300 27/24 A2997 RMK 8/008 HZY
Conditions at: MMMD (MERIDA INTL ARPT, MX) observed 1246 UTC 25 June 2019
Temperature: 27.0°C (81°F)
Dewpoint: 24.0°C (75°F) [RH = 84%]
Pressure (altimeter): 29.97 inches Hg (1015.0 mb)
Winds: from the E (100 degrees) at 9 MPH (8 knots; 4.1 m/s)
Visibility: 6 miles (10 km)
Ceiling: 30000 feet AGL
Clouds: broken clouds at 30000 feet AGL
Weather: no significant weather observed at this time

METAR text: MMMD 251147Z 10010KT 5SM BKN300 25/23 A2996 RMK SLP150 57003 903 8/008 HZY
Conditions at: MMMD (MERIDA INTL ARPT, MX) observed 1147 UTC 25 June 2019
Temperature: 25.0°C (77°F)
Dewpoint: 23.0°C (73°F) [RH = 89%]
Pressure (altimeter): 29.96 inches Hg (1014.6 mb)
[Sea-level pressure: 1015.0 mb]
Winds: from the E (100 degrees) at 12 MPH (10 knots; 5.1 m/s)
Visibility: 5 miles ( 8 km)
Ceiling: 30000 feet AGL
Clouds: broken clouds at 30000 feet AGL
Weather: no significant weather observed at this time

METAR text: MMMD 251047Z 11010KT 6SM BKN300 25/23 A2995 RMK 8/008 HZY
Conditions at: MMMD (MERIDA INTL ARPT, MX) observed 1047 UTC 25 June 2019
Temperature: 25.0°C (77°F)
Dewpoint: 23.0°C (73°F) [RH = 89%]
Pressure (altimeter): 29.95 inches Hg (1014.3 mb)
Winds: from the ESE (110 degrees) at 12 MPH (10 knots; 5.1 m/s)
Visibility: 6 miles (10 km)
Ceiling: 30000 feet AGL
Clouds: broken clouds at 30000 feet AGL
Weather: no significant weather observed at this time

METAR text: MMMD 250948Z 10008KT 7SM SKC 25/22 A2995
Conditions at: MMMD (MERIDA INTL ARPT, MX) observed 0948 UTC 25 June 2019
Temperature: 25.0°C (77°F)
Dewpoint: 22.0°C (72°F) [RH = 83%]
Pressure (altimeter): 29.95 inches Hg (1014.3 mb)
Winds: from the E (100 degrees) at 9 MPH (8 knots; 4.1 m/s)
Visibility: 7 miles (11 km)
Ceiling: at least 12,000 feet AGL
Clouds: clear skies
Weather: no significant weather observed at this time

METAR text: MMMD 250846Z 11006KT 7SM SKC 26/23 A2995 RMK SLP153 52002 910
Conditions at: MMMD (MERIDA INTL ARPT, MX) observed 0846 UTC 25 June 2019
Temperature: 26.0°C (79°F)
Dewpoint: 23.0°C (73°F) [RH = 84%]
Pressure (altimeter): 29.95 inches Hg (1014.3 mb)
[Sea-level pressure: 1015.3 mb]
Winds: from the ESE (110 degrees) at 7 MPH (6 knots; 3.1 m/s)
Visibility: 7 miles (11 km)
Ceiling: at least 12,000 feet AGL
Clouds: clear skies
Weather: no significant weather observed at this time

METAR text: MMMD 250746Z 11007KT 7SM SKC 26/22 A2996
Conditions at: MMMD (MERIDA INTL ARPT, MX) observed 0746 UTC 25 June 2019
Temperature: 26.0°C (79°F)
Dewpoint: 22.0°C (72°F) [RH = 79%]
Pressure (altimeter): 29.96 inches Hg (1014.6 mb)
Winds: from the ESE (110 degrees) at 8 MPH (7 knots; 3.6 m/s)
Visibility: 7 miles (11 km)
Ceiling: at least 12,000 feet AGL
Clouds: clear skies
Weather: no significant weather observed at this time

METAR text: MMMD 250647Z 12008KT 7SM SCT300 27/22 A2995 RMK 8/008
Conditions at: MMMD (MERIDA INTL ARPT, MX) observed 0647 UTC 25 June 2019
Temperature: 27.0°C (81°F)
Dewpoint: 22.0°C (72°F) [RH = 74%]
Pressure (altimeter): 29.95 inches Hg (1014.3 mb)
Winds: from the ESE (120 degrees) at 9 MPH (8 knots; 4.1 m/s)
Visibility: 7 miles (11 km)
Ceiling: at least 12,000 feet AGL
Clouds: scattered clouds at 30000 feet AGL
Weather: no significant weather observed at this time

METAR text: MMMD 250546Z 12011KT 7SM BKN300 28/22 A2996 RMK SLP152 52022 905 8/008
Conditions at: MMMD (MERIDA INTL ARPT, MX) observed 0546 UTC 25 June 2019
Temperature: 28.0°C (82°F)
Dewpoint: 22.0°C (72°F) [RH = 70%]
Pressure (altimeter): 29.96 inches Hg (1014.6 mb)
[Sea-level pressure: 1015.2 mb]
Winds: from the ESE (120 degrees) at 13 MPH (11 knots; 5.7 m/s)
Visibility: 7 miles (11 km)
Ceiling: 30000 feet AGL
Clouds: broken clouds at 30000 feet AGL
Weather: no significant weather observed at this time

METAR text: MMMD 250448Z 12010KT 7SM BKN300 29/21 A2995 RMK 8/008
Conditions at: MMMD (MERIDA INTL ARPT, MX) observed 0448 UTC 25 June 2019
Temperature: 29.0°C (84°F)
Dewpoint: 21.0°C (70°F) [RH = 62%]
Pressure (altimeter): 29.95 inches Hg (1014.3 mb)
Winds: from the ESE (120 degrees) at 12 MPH (10 knots; 5.1 m/s)
Visibility: 7 miles (11 km)
Ceiling: 30000 feet AGL
Clouds: broken clouds at 30000 feet AGL
Weather: no significant weather observed at this time

METAR text: MMMD 250346Z 11014KT 7SM SCT300 30/20 A2994 RMK 8/008
Conditions at: MMMD (MERIDA INTL ARPT, MX) observed 0346 UTC 25 June 2019
Temperature: 30.0°C (86°F)
Dewpoint: 20.0°C (68°F) [RH = 55%]
Pressure (altimeter): 29.94 inches Hg (1014.0 mb)
Winds: from the ESE (110 degrees) at 16 MPH (14 knots; 7.2 m/s)
Visibility: 7 miles (11 km)
Ceiling: at least 12,000 feet AGL
Clouds: scattered clouds at 30000 feet AGL
Weather: no significant weather observed at this time

METAR text: MMMD 250246Z 13016KT 7SM SCT300 32/18 A2990 RMK SLP129 52021 967 8/008
Conditions at: MMMD (MERIDA INTL ARPT, MX) observed 0246 UTC 25 June 2019
Temperature: 32.0°C (90°F)
Dewpoint: 18.0°C (64°F) [RH = 43%]
Pressure (altimeter): 29.90 inches Hg (1012.6 mb)
[Sea-level pressure: 1012.9 mb]
Winds: from the SE (130 degrees) at 18 MPH (16 knots; 8.2 m/s)
Visibility: 7 miles (11 km)
Ceiling: at least 12,000 feet AGL
Clouds: scattered clouds at 30000 feet AGL
Weather: no significant weather observed at this time

METAR text: MMMD 250149Z 12006KT 6SM FEW200 33/15 A2988 RMK 8/008
Conditions at: MMMD (MERIDA INTL ARPT, MX) observed 0149 UTC 25 June 2019
Temperature: 33.0°C (91°F)
Dewpoint: 15.0°C (59°F) [RH = 34%]
Pressure (altimeter): 29.88 inches Hg (1011.9 mb)
Winds: from the ESE (120 degrees) at 7 MPH (6 knots; 3.1 m/s)
Visibility: 6 miles (10 km)
Ceiling: at least 12,000 feet AGL
Clouds: few clouds at 20000 feet AGL
Weather: no significant weather observed at this time

METAR text: MMMD 250040Z 12010KT 6SM FEW200 36/14 A2986 RMK 8/008
Conditions at: MMMD (MERIDA INTL ARPT, MX) observed 0040 UTC 25 June 2019
Temperature: 36.0°C (97°F)
Dewpoint: 14.0°C (57°F) [RH = 27%]
Pressure (altimeter): 29.86 inches Hg (1011.3 mb)
Winds: from the ESE (120 degrees) at 12 MPH (10 knots; 5.1 m/s)
Visibility: 6 miles (10 km)
Ceiling: at least 12,000 feet AGL
Clouds: few clouds at 20000 feet AGL
Weather: no significant weather observed at this time

METAR text: MMMD 242346Z 12010KT 6SM SCT200 37/14 A2984 RMK SLP108 57014 970 8/008
Conditions at: MMMD (MERIDA INTL ARPT, MX) observed 2346 UTC 24 June 2019
Temperature: 37.0°C (99°F)
Dewpoint: 14.0°C (57°F) [RH = 25%]
Pressure (altimeter): 29.84 inches Hg (1010.6 mb)
[Sea-level pressure: 1010.8 mb]
Winds: from the ESE (120 degrees) at 12 MPH (10 knots; 5.1 m/s)
Visibility: 6 miles (10 km)
Ceiling: at least 12,000 feet AGL
Clouds: scattered clouds at 20000 feet AGL
Weather: no significant weather observed at this time

METAR text: MMMD 242253Z 14011G22KT 6SM SCT200 39/14 A2983 RMK 8/008 HZY
Conditions at: MMMD (MERIDA INTL ARPT, MX) observed 2253 UTC 24 June 2019
Temperature: 39.0°C (102°F)
Dewpoint: 14.0°C (57°F) [RH = 23%]
Pressure (altimeter): 29.83 inches Hg (1010.2 mb)
Winds: from the SE (140 degrees) at 13 MPH (11 knots; 5.7 m/s)
gusting to 25 MPH (22 knots; 11.3 m/s)
Visibility: 6 miles (10 km)
Ceiling: at least 12,000 feet AGL
Clouds: scattered clouds at 20000 feet AGL
Weather: no significant weather observed at this time

METAR text: MMMD 242142Z 13020KT 6SM SCT300 40/16 A2984 RMK 8/008 SC HZY
Conditions at: MMMD (MERIDA INTL ARPT, MX) observed 2142 UTC 24 June 2019
Temperature: 40.0°C (104°F)
Dewpoint: 16.0°C (61°F) [RH = 25%]
Pressure (altimeter): 29.84 inches Hg (1010.6 mb)
Winds: from the SE (130 degrees) at 23 MPH (20 knots; 10.3 m/s)
Visibility: 6 miles (10 km)
Ceiling: at least 12,000 feet AGL
Clouds: scattered clouds at 30000 feet AGL
Weather: no significant weather observed at this time

METAR text: MMMD 242052Z 13010KT 6SM SCT200 40/15 A2984 RMK SLP122 57016 953 8/008 SC HZY
Conditions at: MMMD (MERIDA INTL ARPT, MX) observed 2052 UTC 24 June 2019
Temperature: 40.0°C (104°F)
Dewpoint: 15.0°C (59°F) [RH = 23%]
Pressure (altimeter): 29.84 inches Hg (1010.6 mb)
[Sea-level pressure: 1012.2 mb]
Winds: from the SE (130 degrees) at 12 MPH (10 knots; 5.1 m/s)
Visibility: 6 miles (10 km)
Ceiling: at least 12,000 feet AGL
Clouds: scattered clouds at 20000 feet AGL
Weather: no significant weather observed at this time

METAR text: MMMD 241941Z 12012KT 7SM SCT200 39/17 A2987 RMK 8/008 HZY
Conditions at: MMMD (MERIDA INTL ARPT, MX) observed 1941 UTC 24 June 2019
Temperature: 39.0°C (102°F)
Dewpoint: 17.0°C (63°F) [RH = 28%]
Pressure (altimeter): 29.87 inches Hg (1011.6 mb)
Winds: from the ESE (120 degrees) at 14 MPH (12 knots; 6.2 m/s)
Visibility: 7 miles (11 km)
Ceiling: at least 12,000 feet AGL
Clouds: scattered clouds at 20000 feet AGL
Weather: no significant weather observed at this time

METAR text: MMMD 241845Z 10020KT 6SM SCT200 38/17 A2989 RMK 8/008 HZY
Conditions at: MMMD (MERIDA INTL ARPT, MX) observed 1845 UTC 24 June 2019
Temperature: 38.0°C (100°F)
Dewpoint: 17.0°C (63°F) [RH = 29%]
Pressure (altimeter): 29.89 inches Hg (1012.3 mb)
Winds: from the E (100 degrees) at 23 MPH (20 knots; 10.3 m/s)
Visibility: 6 miles (10 km)
Ceiling: at least 12,000 feet AGL
Clouds: scattered clouds at 20000 feet AGL
Weather: no significant weather observed at this time

METAR text: MMMD 241747Z 15014KT 6SM SCT200 37/19 A2991 RMK SLP138 56015 954 8/008 HZY
Conditions at: MMMD (MERIDA INTL ARPT, MX) observed 1747 UTC 24 June 2019
Temperature: 37.0°C (99°F)
Dewpoint: 19.0°C (66°F) [RH = 35%]
Pressure (altimeter): 29.91 inches Hg (1013.0 mb)
[Sea-level pressure: 1013.8 mb]
Winds: from the SSE (150 degrees) at 16 MPH (14 knots; 7.2 m/s)
Visibility: 6 miles (10 km)
Ceiling: at least 12,000 feet AGL
Clouds: scattered clouds at 20000 feet AGL
Weather: no significant weather observed at this time

METAR text: MMMD 241646Z 13012KT 6SM SCT200 36/19 A2995 RMK 8/008 HZY
Conditions at: MMMD (MERIDA INTL ARPT, MX) observed 1646 UTC 24 June 2019
Temperature: 36.0°C (97°F)
Dewpoint: 19.0°C (66°F) [RH = 37%]
Pressure (altimeter): 29.95 inches Hg (1014.3 mb)
Winds: from the SE (130 degrees) at 14 MPH (12 knots; 6.2 m/s)
Visibility: 6 miles (10 km)
Ceiling: at least 12,000 feet AGL
Clouds: scattered clouds at 20000 feet AGL
Weather: no significant weather observed at this time

METAR text: MMMD 241547Z 13013KT 6SM SKC 34/21 A2997 RMK HZY
Conditions at: MMMD (MERIDA INTL ARPT, MX) observed 1547 UTC 24 June 2019
Temperature: 34.0°C (93°F)
Dewpoint: 21.0°C (70°F) [RH = 47%]
Pressure (altimeter): 29.97 inches Hg (1015.0 mb)
Winds: from the SE (130 degrees) at 15 MPH (13 knots; 6.7 m/s)
Visibility: 6 miles (10 km)
Ceiling: at least 12,000 feet AGL
Clouds: clear skies
Weather: no significant weather observed at this time

Forecast for: MMMD (MERIDA INTL ARPT, MX)
Text: TAF MMMD 252307Z 2600/2706 07010KT P6SM SCT025 SCT090 BKN280 TX38/2620Z TN25/2610Z
Forecast period: 0000 to 0400 UTC 26 June 2019
Forecast type: FROM: standard forecast or significant change
Winds: from the ENE (70 degrees) at 12 MPH (10 knots; 5.1 m/s)
Visibility: 6 or more miles 10+ km)
Ceiling: 28000 feet AGL
Clouds: scattered clouds at 2500 feet AGL
scattered clouds at 9000 feet AGL
broken clouds at 28000 feet AGL
Weather: no significant weather forecast for this period
Text: FM260400 13010KT 6SM HZ SCT015
Forecast period: 0400 to 1600 UTC 26 June 2019
Forecast type: FROM: standard forecast or significant change
Winds: from the SE (130 degrees) at 12 MPH (10 knots; 5.1 m/s)
Visibility: 6 miles (10 km)
Ceiling: at least 12,000 feet AGL
Clouds: scattered clouds at 1500 feet AGL
Weather: HZ  (haze)
Text: TEMPO 2611/2615 4SM HZ BKN010
Forecast period: 1100 to 1500 UTC 26 June 2019
Forecast type: TEMPORARY: The following changes expected for less than half the time period
Visibility: 4 miles (6 km)
Ceiling: 1000 feet AGL
Clouds: broken clouds at 1000 feet AGL
Weather: HZ  (haze)
Text: FM261600 09010KT P6SM SCT020 SCT090 BKN280
Forecast period: 1600 to 1900 UTC 26 June 2019
Forecast type: FROM: standard forecast or significant change
Winds: from the E (90 degrees) at 12 MPH (10 knots; 5.1 m/s)
Visibility: 6 or more miles 10+ km)
Ceiling: 28000 feet AGL
Clouds: scattered clouds at 2000 feet AGL
scattered clouds at 9000 feet AGL
broken clouds at 28000 feet AGL
Weather: no significant weather forecast for this period
Text: FM261900 06012KT P6SM SCT020 SCT090 BKN280
Forecast period: 1900 UTC 26 June 2019 to 0300 UTC 27 June 2019
Forecast type: FROM: standard forecast or significant change
Winds: from the ENE (60 degrees) at 14 MPH (12 knots; 6.2 m/s)
Visibility: 6 or more miles 10+ km)
Ceiling: 28000 feet AGL
Clouds: scattered clouds at 2000 feet AGL
scattered clouds at 9000 feet AGL
broken clouds at 28000 feet AGL
Weather: no significant weather forecast for this period
Text: FM270300 10010KT P6SM SKC
Forecast period: 0300 to 0600 UTC 27 June 2019
Forecast type: FROM: standard forecast or significant change
Winds: from the E (100 degrees) at 12 MPH (10 knots; 5.1 m/s)
Visibility: 6 or more miles 10+ km)
Clouds: clear skies
Weather: no significant weather forecast for this period